Time;durP1;ratioP1;P1;durP2;ratioP2;P2;SDS_P1;SDS_P2;PMS_P1;PMS_P2;Temp;Humidity;BMP_temperature;BMP_pressure;BME280_temperature;BME280_humidity;BME280_pressure;Samples;Min_cycle;Max_cycle;Signal;HPM_P1;HPM_P2
2022/05/10 00:02:21;;;;;;;5.00;4.53;;;;;;;;;;5080960;28;20226;-85
2022/05/10 00:04:51;;;;;;;5.43;4.93;;;;;;;;;;5076163;28;20232;-85
2022/05/10 00:07:18;;;;;;;5.13;4.63;;;;;;;;;;5077539;28;20212;-86
2022/05/10 00:09:45;;;;;;;5.43;4.93;;;;;;;;;;5074493;28;20237;-85
2022/05/10 00:12:12;;;;;;;5.10;4.60;;;;;;;;;;5073733;28;20213;-85
2022/05/10 00:14:39;;;;;;;6.63;4.80;;;;;;;;;;5073303;28;20240;-85
2022/05/10 00:17:08;;;;;;;5.60;5.13;;;;;;;;;;5074356;28;20202;-85
2022/05/10 00:19:35;;;;;;;4.90;4.50;;;;;;;;;;5073657;28;20347;-85
2022/05/10 00:22:02;;;;;;;7.53;4.67;;;;;;;;;;5073917;28;20227;-85
2022/05/10 00:24:29;;;;;;;6.03;4.77;;;;;;;;;;5073241;28;20240;-85
2022/05/10 00:26:56;;;;;;;5.67;5.17;;;;;;;;;;5074087;28;20209;-85
2022/05/10 00:29:23;;;;;;;6.50;4.93;;;;;;;;;;5073526;28;20635;-85
2022/05/10 00:31:50;;;;;;;5.37;4.87;;;;;;;;;;5073758;28;20568;-85
2022/05/10 00:34:19;;;;;;;5.67;4.53;;;;;;;;;;5073187;28;20237;-85
2022/05/10 00:36:47;;;;;;;6.17;5.27;;;;;;;;;;5073558;28;20205;-85
2022/05/10 00:39:14;;;;;;;5.90;5.40;;;;;;;;;;5073263;28;20241;-85
2022/05/10 00:41:46;;;;;;;6.07;5.47;;;;;;;;;;5073431;28;20197;-85
2022/05/10 00:44:15;;;;;;;6.47;5.33;;;;;;;;;;5072932;28;20804;-85
2022/05/10 00:46:44;;;;;;;7.37;5.47;;;;;;;;;;5076835;28;20201;-85
2022/05/10 00:49:14;;;;;;;5.60;5.10;;;;;;;;;;5072889;28;20728;-85
2022/05/10 00:51:45;;;;;;;7.23;4.97;;;;;;;;;;5073117;28;20243;-86
2022/05/10 00:54:19;;;;;;;5.67;5.20;;;;;;;;;;5072704;28;20721;-85
2022/05/10 00:56:50;;;;;;;5.67;5.07;;;;;;;;;;5073868;28;20193;-85
2022/05/10 00:59:19;;;;;;;7.37;5.20;;;;;;;;;;5072891;28;20244;-85
2022/05/10 01:01:49;;;;;;;5.50;5.00;;;;;;;;;;5071330;28;20201;-85
2022/05/10 01:04:20;;;;;;;6.20;5.60;;;;;;;;;;5072191;28;20727;-85
2022/05/10 01:06:51;;;;;;;7.90;5.80;;;;;;;;;;5068789;28;20213;-85
2022/05/10 01:09:22;;;;;;;8.50;5.60;;;;;;;;;;5072052;28;20312;-85
2022/05/10 01:11:51;;;;;;;6.47;5.27;;;;;;;;;;5077818;28;20186;-85
2022/05/10 01:14:20;;;;;;;6.67;5.43;;;;;;;;;;5076011;28;20233;-85
2022/05/10 01:16:48;;;;;;;5.17;4.60;;;;;;;;;;5076206;28;20213;-85
2022/05/10 01:19:15;;;;;;;5.73;5.23;;;;;;;;;;5077387;28;20251;-85
2022/05/10 01:21:51;;;;;;;5.77;4.97;;;;;;;;;;5075861;28;20719;-85
2022/05/10 01:24:34;;;;;;;5.70;5.17;;;;;;;;;;5082266;28;20242;-84
2022/05/10 01:27:11;;;;;;;6.23;5.33;;;;;;;;;;5081856;28;20197;-84
2022/05/10 01:29:43;;;;;;;5.77;5.17;;;;;;;;;;5078210;28;20240;-85
2022/05/10 01:34:59;;;;;;;5.67;4.97;;;;;;;;;;5078746;28;20232;-84
2022/05/10 01:37:29;;;;;;;5.90;5.37;;;;;;;;;;5079206;28;20677;-84
2022/05/10 01:39:59;;;;;;;9.00;5.57;;;;;;;;;;5077796;28;20244;-84
2022/05/10 01:42:29;;;;;;;6.03;5.50;;;;;;;;;;5079430;28;20221;-84
2022/05/10 01:45:00;;;;;;;6.53;5.90;;;;;;;;;;5078414;28;20233;-84
2022/05/10 01:47:30;;;;;;;6.40;5.80;;;;;;;;;;5077661;28;20198;-85
2022/05/10 01:50:02;;;;;;;6.00;5.47;;;;;;;;;;5076987;28;20665;-85
2022/05/10 01:52:31;;;;;;;5.77;5.27;;;;;;;;;;5077660;28;20221;-85
2022/05/10 01:55:03;;;;;;;7.23;6.00;;;;;;;;;;5076811;28;20237;-85
2022/05/10 01:57:31;;;;;;;5.93;5.43;;;;;;;;;;5076470;28;20212;-85
2022/05/10 02:00:04;;;;;;;8.83;6.00;;;;;;;;;;5076180;28;20241;-85
2022/05/10 02:02:32;;;;;;;9.00;6.57;;;;;;;;;;5077853;28;20232;-84
2022/05/10 02:05:01;;;;;;;7.53;6.03;;;;;;;;;;5079062;28;20259;-85
2022/05/10 02:07:28;;;;;;;6.53;6.03;;;;;;;;;;5080555;28;20202;-84
2022/05/10 02:09:58;;;;;;;6.57;5.93;;;;;;;;;;5080245;28;20245;-84
2022/05/10 02:12:28;;;;;;;6.63;5.87;;;;;;;;;;5064453;28;20685;-84
2022/05/10 02:14:57;;;;;;;6.27;5.77;;;;;;;;;;5078271;28;20588;-84
2022/05/10 02:17:29;;;;;;;7.87;6.43;;;;;;;;;;5077533;28;20217;-84
2022/05/10 02:19:59;;;;;;;7.80;6.17;;;;;;;;;;5077243;28;20613;-84
2022/05/10 02:22:31;;;;;;;6.83;6.23;;;;;;;;;;5078175;28;20236;-84
2022/05/10 02:24:59;;;;;;;6.17;5.60;;;;;;;;;;5078111;28;20233;-85
2022/05/10 02:27:30;;;;;;;6.87;6.27;;;;;;;;;;5079262;28;20304;-85
2022/05/10 02:30:01;;;;;;;6.63;5.93;;;;;;;;;;5077755;28;20239;-84
2022/05/10 02:35:18;;;;;;;6.70;5.80;;;;;;;;;;5081369;28;20240;-85
2022/05/10 02:37:45;;;;;;;10.80;5.80;;;;;;;;;;5082329;28;20212;-85
2022/05/10 02:40:13;;;;;;;6.23;5.13;;;;;;;;;;5081926;28;20263;-85
2022/05/10 02:42:40;;;;;;;7.20;6.17;;;;;;;;;;5082558;28;20301;-84
2022/05/10 02:45:08;;;;;;;6.90;6.20;;;;;;;;;;5081037;28;20240;-84
2022/05/10 02:47:37;;;;;;;7.43;5.30;;;;;;;;;;5082019;28;20244;-84
2022/05/10 02:50:05;;;;;;;7.87;6.27;;;;;;;;;;5081843;28;20233;-84
2022/05/10 02:52:32;;;;;;;6.50;5.33;;;;;;;;;;5082162;28;20308;-84
2022/05/10 02:55:01;;;;;;;9.43;5.90;;;;;;;;;;5081127;28;20233;-85
2022/05/10 02:57:29;;;;;;;6.93;6.33;;;;;;;;;;5082856;28;20206;-84
2022/05/10 02:59:59;;;;;;;6.70;5.73;;;;;;;;;;5082015;28;20644;-84
2022/05/10 03:02:27;;;;;;;6.17;5.67;;;;;;;;;;5082950;28;20229;-85
2022/05/10 03:04:57;;;;;;;6.53;6.03;;;;;;;;;;5082448;28;20237;-84
2022/05/10 03:07:25;;;;;;;7.47;6.27;;;;;;;;;;5083578;28;20205;-84
2022/05/10 03:09:52;;;;;;;7.27;6.57;;;;;;;;;;5082318;28;20697;-84
2022/05/10 03:12:19;;;;;;;7.30;6.37;;;;;;;;;;5071578;28;20228;-84
2022/05/10 03:14:46;;;;;;;12.93;5.93;;;;;;;;;;5082972;28;20233;-84
2022/05/10 03:17:14;;;;;;;6.70;6.13;;;;;;;;;;5083039;28;20205;-84
2022/05/10 03:19:41;;;;;;;6.93;6.00;;;;;;;;;;5081926;28;20233;-84
2022/05/10 03:22:10;;;;;;;10.20;6.27;;;;;;;;;;5082165;28;20229;-84
2022/05/10 03:24:37;;;;;;;6.63;5.97;;;;;;;;;;5082126;28;20228;-84
2022/05/10 03:27:06;;;;;;;6.53;5.93;;;;;;;;;;5082429;28;20295;-84
2022/05/10 03:29:33;;;;;;;6.53;5.97;;;;;;;;;;5082162;28;20221;-84
2022/05/10 03:32:01;;;;;;;6.90;6.20;;;;;;;;;;5082572;28;20209;-84
2022/05/10 03:37:14;;;;;;;6.80;6.17;;;;;;;;;;5082486;28;20184;-84
2022/05/10 03:39:41;;;;;;;7.10;6.30;;;;;;;;;;5081661;28;20237;-84
2022/05/10 03:42:08;;;;;;;6.83;6.13;;;;;;;;;;5082648;28;20233;-84
2022/05/10 03:44:35;;;;;;;7.17;6.50;;;;;;;;;;5080837;28;20244;-84
2022/05/10 03:47:03;;;;;;;6.87;6.17;;;;;;;;;;5085243;28;20212;-85
2022/05/10 03:49:30;;;;;;;6.70;6.10;;;;;;;;;;5083352;28;20233;-84
2022/05/10 03:51:57;;;;;;;7.23;6.13;;;;;;;;;;5083726;28;20228;-85
2022/05/10 03:54:25;;;;;;;8.43;6.20;;;;;;;;;;5083177;28;20296;-84
2022/05/10 03:56:53;;;;;;;7.30;6.47;;;;;;;;;;5084359;28;20598;-84
2022/05/10 03:59:20;;;;;;;6.87;6.03;;;;;;;;;;5084218;28;20240;-84
2022/05/10 04:01:47;;;;;;;9.50;6.43;;;;;;;;;;5083869;28;20201;-85
2022/05/10 04:04:14;;;;;;;8.23;6.50;;;;;;;;;;5081082;28;20240;-84
2022/05/10 04:06:42;;;;;;;7.90;6.33;;;;;;;;;;5083681;28;20296;-84
2022/05/10 04:09:09;;;;;;;6.93;6.10;;;;;;;;;;5082080;28;20708;-84
2022/05/10 04:11:37;;;;;;;7.20;6.23;;;;;;;;;;5075368;28;20201;-85
2022/05/10 04:14:04;;;;;;;6.93;6.30;;;;;;;;;;5075813;28;20237;-82
2022/05/10 04:16:32;;;;;;;7.13;5.93;;;;;;;;;;5082370;28;20209;-82
2022/05/10 04:18:59;;;;;;;7.33;6.63;;;;;;;;;;5082578;28;20583;-82
2022/05/10 04:21:26;;;;;;;6.97;6.27;;;;;;;;;;5081802;28;20205;-83
2022/05/10 04:23:53;;;;;;;6.60;6.10;;;;;;;;;;5082121;28;20615;-83
2022/05/10 04:26:20;;;;;;;9.20;6.97;;;;;;;;;;5084681;28;20665;-83
2022/05/10 04:28:49;;;;;;;11.07;6.93;;;;;;;;;;5082083;28;20229;-83
2022/05/10 04:31:16;;;;;;;12.20;7.67;;;;;;;;;;5082593;28;20207;-83
2022/05/10 04:33:43;;;;;;;9.60;7.20;;;;;;;;;;5082701;28;20240;-83
2022/05/10 04:36:10;;;;;;;8.50;7.20;;;;;;;;;;5084371;28;20216;-82
2022/05/10 04:38:37;;;;;;;18.63;8.33;;;;;;;;;;5083763;28;20240;-83
2022/05/10 04:43:50;;;;;;;11.40;5.90;;;;;;;;;;5082411;28;20256;-83
2022/05/10 04:46:17;;;;;;;7.33;6.63;;;;;;;;;;5083223;28;20212;-83
2022/05/10 04:48:45;;;;;;;13.07;7.77;;;;;;;;;;5082613;28;20634;-83
2022/05/10 04:51:12;;;;;;;10.57;8.13;;;;;;;;;;5082839;28;20193;-83
2022/05/10 04:53:39;;;;;;;8.47;7.77;;;;;;;;;;5082059;28;20241;-84
2022/05/10 04:56:06;;;;;;;15.87;8.83;;;;;;;;;;5082491;28;20212;-83
2022/05/10 04:58:34;;;;;;;10.00;7.53;;;;;;;;;;5082025;28;20248;-84
2022/05/10 05:01:05;;;;;;;9.63;7.63;;;;;;;;;;5082002;28;20678;-84
2022/05/10 05:03:32;;;;;;;7.80;7.10;;;;;;;;;;5081378;28;20253;-83
2022/05/10 05:05:59;;;;;;;8.77;7.83;;;;;;;;;;5086291;28;20205;-84
2022/05/10 05:08:26;;;;;;;12.83;8.43;;;;;;;;;;5082448;28;20216;-84
2022/05/10 05:10:54;;;;;;;10.93;9.33;;;;;;;;;;5083253;28;20202;-81
2022/05/10 05:13:21;;;;;;;12.53;8.90;;;;;;;;;;5084415;28;20236;-80
2022/05/10 05:15:48;;;;;;;12.00;9.30;;;;;;;;;;5073382;28;20202;-80
2022/05/10 05:18:16;;;;;;;9.97;8.67;;;;;;;;;;5064968;28;20210;-81
2022/05/10 05:20:44;;;;;;;9.37;8.47;;;;;;;;;;5067093;28;20296;-82
2022/05/10 05:23:11;;;;;;;11.27;9.53;;;;;;;;;;5065585;28;20245;-80
2022/05/10 05:25:39;;;;;;;10.23;9.17;;;;;;;;;;5058187;28;20222;-80
2022/05/10 05:28:06;;;;;;;14.97;9.37;;;;;;;;;;5058921;28;20210;-81
2022/05/10 05:30:34;;;;;;;12.00;10.00;;;;;;;;;;5058077;28;20230;-81
2022/05/10 05:33:01;;;;;;;12.10;10.00;;;;;;;;;;5059061;28;20232;-79
2022/05/10 05:35:29;;;;;;;11.00;9.50;;;;;;;;;;5058016;28;20237;-81
2022/05/10 05:37:56;;;;;;;10.97;9.20;;;;;;;;;;5059614;28;20212;-80
2022/05/10 05:40:24;;;;;;;10.60;9.60;;;;;;;;;;5061171;28;20238;-80
2022/05/10 05:42:52;;;;;;;11.57;10.30;;;;;;;;;;5061343;28;20222;-80
2022/05/10 05:45:20;;;;;;;13.77;11.33;;;;;;;;;;5061275;28;20246;-81
2022/05/10 05:47:47;;;;;;;11.77;10.53;;;;;;;;;;5064063;28;20209;-81
2022/05/10 05:50:16;;;;;;;12.30;10.83;;;;;;;;;;5071067;28;20217;-81
2022/05/10 05:52:45;;;;;;;12.10;10.80;;;;;;;;;;5082822;28;20696;-81
2022/05/10 05:55:13;;;;;;;11.97;10.77;;;;;;;;;;5081034;28;20236;-81
2022/05/10 05:57:40;;;;;;;13.73;11.60;;;;;;;;;;5083367;28;20205;-82
2022/05/10 06:00:08;;;;;;;13.30;10.80;;;;;;;;;;5084797;28;20233;-82
2022/05/10 06:02:36;;;;;;;12.07;10.87;;;;;;;;;;5084801;28;20235;-82
2022/05/10 06:05:03;;;;;;;13.07;10.80;;;;;;;;;;5080196;28;20648;-79
2022/05/10 06:07:30;;;;;;;12.60;11.20;;;;;;;;;;5079200;28;20209;-79
2022/05/10 06:09:58;;;;;;;11.97;10.77;;;;;;;;;;5085344;28;20229;-79
2022/05/10 06:12:26;;;;;;;16.10;11.10;;;;;;;;;;5089697;28;20251;-80
2022/05/10 06:14:53;;;;;;;14.20;11.33;;;;;;;;;;5096142;28;20312;-84
2022/05/10 06:17:20;;;;;;;14.60;10.60;;;;;;;;;;5096557;28;20205;-82
2022/05/10 06:19:47;;;;;;;12.47;11.17;;;;;;;;;;5097791;28;20236;-83
2022/05/10 06:22:15;;;;;;;11.77;10.60;;;;;;;;;;5098605;28;20233;-83
2022/05/10 06:24:42;;;;;;;11.43;10.30;;;;;;;;;;5098372;28;20678;-82
2022/05/10 06:27:14;;;;;;;10.27;9.27;;;;;;;;;;5097821;28;20243;-83
2022/05/10 06:29:41;;;;;;;11.60;9.57;;;;;;;;;;5095708;28;20204;-83
2022/05/10 06:32:08;;;;;;;10.00;9.00;;;;;;;;;;5095721;28;20225;-81
2022/05/10 06:34:35;;;;;;;11.60;7.93;;;;;;;;;;5087884;28;20225;-82
2022/05/10 06:38:15;;;;;;;10.87;9.77;;;;;;;;;;5087943;28;20202;-84
2022/05/10 06:39:49;;;;;;;11.00;9.20;;;;;;;;;;5086003;28;20241;-82
2022/05/10 06:42:23;;;;;;;9.87;8.57;;;;;;;;;;5085316;28;20263;-81
2022/05/10 06:44:50;;;;;;;9.17;8.37;;;;;;;;;;5084137;28;20229;-80
2022/05/10 06:47:18;;;;;;;10.23;8.00;;;;;;;;;;5086626;28;20213;-83
2022/05/10 06:49:45;;;;;;;9.13;8.23;;;;;;;;;;5085018;28;20232;-82
2022/05/10 06:52:12;;;;;;;8.10;7.37;;;;;;;;;;5086253;28;20224;-81
2022/05/10 06:54:39;;;;;;;8.57;7.53;;;;;;;;;;5074250;28;20233;-82
2022/05/10 06:57:06;;;;;;;8.43;7.63;;;;;;;;;;5075842;28;20213;-83
2022/05/10 06:59:34;;;;;;;10.47;7.47;;;;;;;;;;5068157;28;21328;-83
2022/05/10 07:02:02;;;;;;;8.20;6.40;;;;;;;;;;5074879;28;20240;-83
2022/05/10 07:04:29;;;;;;;9.37;6.90;;;;;;;;;;5081310;28;20229;-82
2022/05/10 07:06:56;;;;;;;9.50;7.17;;;;;;;;;;5082802;28;20209;-81
2022/05/10 07:09:23;;;;;;;7.23;6.53;;;;;;;;;;5083134;28;20229;-82
2022/05/10 07:11:50;;;;;;;6.63;6.03;;;;;;;;;;5083709;28;20213;-79
2022/05/10 07:14:17;;;;;;;7.63;6.80;;;;;;;;;;5074942;28;20230;-80
2022/05/10 07:16:46;;;;;;;10.33;7.10;;;;;;;;;;5083503;28;20205;-80
2022/05/10 07:19:13;;;;;;;8.60;6.50;;;;;;;;;;5071478;28;20254;-80
2022/05/10 07:21:40;;;;;;;7.17;6.30;;;;;;;;;;5064887;28;20225;-80
2022/05/10 07:24:07;;;;;;;7.30;6.70;;;;;;;;;;5077063;23;20234;-84
2022/05/10 07:26:34;;;;;;;8.83;6.73;;;;;;;;;;5054358;28;20205;-82
2022/05/10 07:29:01;;;;;;;7.47;6.70;;;;;;;;;;5059688;28;20245;-82
2022/05/10 07:31:28;;;;;;;7.17;5.63;;;;;;;;;;5056008;28;20198;-81
2022/05/10 07:33:57;;;;;;;6.60;6.03;;;;;;;;;;5057331;28;20250;-81
2022/05/10 07:36:33;;;;;;;7.88;6.20;;;;;;;;;;5055481;28;20209;-81
2022/05/10 07:39:00;;;;;;;8.55;6.28;;;;;;;;;;5054967;28;20225;-82
2022/05/10 07:41:28;;;;;;;6.07;5.47;;;;;;;;;;5054968;28;20222;-81
2022/05/10 07:43:56;;;;;;;7.55;6.13;;;;;;;;;;5057034;28;20237;-81
2022/05/10 07:46:23;;;;;;;7.53;6.32;;;;;;;;;;5059044;28;20206;-80
2022/05/10 07:48:51;;;;;;;7.07;5.60;;;;;;;;;;5041220;28;20239;-81
2022/05/10 07:51:19;;;;;;;8.50;5.93;;;;;;;;;;5044516;28;20670;-80
2022/05/10 07:53:46;;;;;;;6.32;5.72;;;;;;;;;;5038696;28;20234;-80
2022/05/10 07:56:13;;;;;;;7.72;6.28;;;;;;;;;;5041563;28;20207;-80
2022/05/10 07:58:40;;;;;;;8.65;5.43;;;;;;;;;;5041175;28;20241;-80
2022/05/10 08:01:08;;;;;;;6.10;5.28;;;;;;;;;;5039950;28;20231;-80
2022/05/10 08:03:35;;;;;;;6.10;5.35;;;;;;;;;;5036711;28;20239;-81
2022/05/10 08:06:03;;;;;;;6.85;5.97;;;;;;;;;;5038310;28;20207;-79
2022/05/10 08:08:34;;;;;;;6.60;6.00;;;;;;;;;;5036755;28;20228;-78
2022/05/10 08:11:01;;;;;;;5.70;5.20;;;;;;;;;;5037941;28;20187;-80
2022/05/10 08:13:29;;;;;;;6.18;5.68;;;;;;;;;;5038474;28;20230;-79
2022/05/10 08:15:57;;;;;;;7.32;4.93;;;;;;;;;;5041037;28;20215;-80
2022/05/10 08:18:25;;;;;;;6.13;5.45;;;;;;;;;;5040300;28;20221;-79
2022/05/10 08:20:52;;;;;;;6.30;4.72;;;;;;;;;;5035915;28;20793;-82
2022/05/10 08:23:21;;;;;;;5.40;4.78;;;;;;;;;;5035984;28;20234;-81
2022/05/10 08:25:50;;;;;;;4.40;4.00;;;;;;;;;;5040525;28;20669;-80
2022/05/10 08:28:17;;;;;;;4.10;3.70;;;;;;;;;;5040220;28;20206;-81
2022/05/10 08:30:46;;;;;;;4.30;3.90;;;;;;;;;;5037844;28;20198;-80
2022/05/10 08:33:13;;;;;;;4.20;3.85;;;;;;;;;;5039134;28;20258;-81
2022/05/10 08:35:41;;;;;;;4.13;3.83;;;;;;;;;;5040146;28;20222;-80
2022/05/10 08:38:08;;;;;;;5.25;4.32;;;;;;;;;;5040413;28;20213;-82
2022/05/10 08:40:37;;;;;;;3.65;3.35;;;;;;;;;;5036211;28;20230;-82
2022/05/10 08:43:07;;;;;;;4.22;3.88;;;;;;;;;;5033094;28;20227;-82
2022/05/10 08:45:36;;;;;;;4.68;3.92;;;;;;;;;;5039862;28;20238;-82
2022/05/10 08:48:04;;;;;;;4.22;3.30;;;;;;;;;;5041742;28;20199;-81
2022/05/10 08:50:31;;;;;;;4.78;3.50;;;;;;;;;;5059008;28;20244;-81
2022/05/10 08:52:58;;;;;;;4.90;3.60;;;;;;;;;;5055545;28;20229;-82
2022/05/10 08:55:27;;;;;;;5.40;4.05;;;;;;;;;;5058634;28;20241;-81
2022/05/10 08:57:57;;;;;;;3.65;3.33;;;;;;;;;;5049618;28;20221;-81
2022/05/10 09:00:31;;;;;;;4.70;3.47;;;;;;;;;;5057969;28;20234;-80
2022/05/10 09:02:59;;;;;;;6.25;3.42;;;;;;;;;;5059907;28;20228;-81
2022/05/10 09:05:31;;;;;;;4.65;3.30;;;;;;;;;;5058850;28;20237;-81
2022/05/10 09:08:02;;;;;;;6.07;3.90;;;;;;;;;;5057873;28;20213;-82
2022/05/10 09:10:34;;;;;;;6.43;3.65;;;;;;;;;;5053830;28;20236;-85
2022/05/10 09:13:03;;;;;;;4.57;3.45;;;;;;;;;;5052894;28;20272;-85
2022/05/10 09:15:34;;;;;;;6.43;3.70;;;;;;;;;;5052228;28;20225;-85
2022/05/10 09:18:07;;;;;;;5.72;3.78;;;;;;;;;;5053096;28;20214;-85
2022/05/10 09:20:34;;;;;;;5.28;3.70;;;;;;;;;;5052077;28;20253;-85
2022/05/10 09:23:06;;;;;;;4.05;3.70;;;;;;;;;;5033621;28;20257;-86
2022/05/10 09:25:34;;;;;;;4.28;3.22;;;;;;;;;;5032476;28;20266;-85
2022/05/10 09:28:04;;;;;;;4.60;3.63;;;;;;;;;;5032826;28;20210;-85
2022/05/10 09:30:34;;;;;;;5.93;4.32;;;;;;;;;;5032068;28;20230;-85
2022/05/10 09:36:01;;;;;;;3.88;3.22;;;;;;;;;;5032554;28;20218;-84
2022/05/10 09:38:28;;;;;;;3.53;3.22;;;;;;;;;;5032590;28;20241;-85
2022/05/10 09:40:55;;;;;;;4.03;3.72;;;;;;;;;;5032087;28;20222;-85
2022/05/10 09:43:25;;;;;;;4.25;3.85;;;;;;;;;;5032759;28;20222;-85
2022/05/10 09:46:11;;;;;;;3.85;3.50;;;;;;;;;;5032743;28;20911;-85
2022/05/10 09:48:38;;;;;;;3.85;3.45;;;;;;;;;;5031866;28;20609;-85
2022/05/10 09:51:20;;;;;;;3.70;3.33;;;;;;;;;;5037772;28;20732;-87
2022/05/10 09:53:47;;;;;;;3.90;3.50;;;;;;;;;;5051042;28;20233;-86
2022/05/10 09:56:30;;;;;;;3.90;3.22;;;;;;;;;;5051867;28;20209;-86
2022/05/10 09:58:58;;;;;;;3.70;3.40;;;;;;;;;;5051566;28;20233;-85
2022/05/10 10:01:38;;;;;;;4.47;3.25;;;;;;;;;;5051883;28;20222;-87
2022/05/10 10:04:20;;;;;;;6.47;3.25;;;;;;;;;;5051266;28;20248;-86
2022/05/10 10:06:47;;;;;;;3.67;3.38;;;;;;;;;;5051447;28;20182;-86
2022/05/10 10:09:30;;;;;;;5.03;3.53;;;;;;;;;;5051077;28;20725;-85
2022/05/10 10:11:57;;;;;;;4.28;3.45;;;;;;;;;;5051407;28;20260;-86
2022/05/10 10:14:34;;;;;;;3.53;3.22;;;;;;;;;;5050401;28;20257;-85
2022/05/10 10:17:02;;;;;;;3.13;2.85;;;;;;;;;;5051770;28;20265;-86
2022/05/10 10:19:32;;;;;;;3.28;3.03;;;;;;;;;;5050572;28;20622;-86
2022/05/10 10:22:02;;;;;;;3.78;3.47;;;;;;;;;;5043125;28;20218;-86
2022/05/10 10:24:32;;;;;;;4.60;3.22;;;;;;;;;;5049917;28;20654;-86
2022/05/10 10:27:02;;;;;;;3.60;3.30;;;;;;;;;;5050607;28;20670;-85
2022/05/10 10:29:31;;;;;;;4.70;4.28;;;;;;;;;;5050965;28;20258;-87
2022/05/10 10:32:01;;;;;;;3.50;3.20;;;;;;;;;;5050989;28;20576;-86
2022/05/10 10:34:35;;;;;;;3.50;3.30;;;;;;;;;;5049907;28;20561;-85
2022/05/10 10:37:05;;;;;;;3.55;3.20;;;;;;;;;;5050870;28;20668;-86
2022/05/10 10:39:35;;;;;;;3.58;3.30;;;;;;;;;;5050490;28;20234;-86
2022/05/10 10:42:08;;;;;;;3.00;2.80;;;;;;;;;;5051123;28;20309;-87
2022/05/10 10:44:36;;;;;;;3.55;3.25;;;;;;;;;;5049689;28;20238;-86
2022/05/10 10:47:09;;;;;;;3.63;3.35;;;;;;;;;;5051057;28;20206;-87
2022/05/10 10:49:40;;;;;;;5.50;3.70;;;;;;;;;;5050596;28;20629;-86
2022/05/10 10:52:08;;;;;;;3.78;3.47;;;;;;;;;;5050958;28;20650;-87
2022/05/10 10:54:36;;;;;;;4.15;3.67;;;;;;;;;;5051295;28;20321;-87
2022/05/10 10:57:18;;;;;;;3.60;3.38;;;;;;;;;;5054779;28;20293;-88
2022/05/10 10:59:53;;;;;;;3.90;3.60;;;;;;;;;;5054407;28;20233;-86
2022/05/10 11:02:39;;;;;;;5.38;3.83;;;;;;;;;;5055318;28;20208;-88
2022/05/10 11:05:18;;;;;;;4.25;3.67;;;;;;;;;;5053976;28;20257;-88
2022/05/10 11:07:51;;;;;;;4.07;3.42;;;;;;;;;;5054404;28;20623;-88
2022/05/10 11:10:23;;;;;;;3.67;3.13;;;;;;;;;;5054419;28;20607;-88
2022/05/10 11:12:53;;;;;;;4.15;3.35;;;;;;;;;;5054512;28;20798;-88
2022/05/10 11:15:31;;;;;;;3.92;3.33;;;;;;;;;;5054192;28;20229;-88
2022/05/10 11:18:05;;;;;;;3.45;3.10;;;;;;;;;;5055337;28;20210;-88
2022/05/10 11:20:41;;;;;;;3.85;3.50;;;;;;;;;;5054169;28;20250;-86
2022/05/10 11:23:10;;;;;;;3.83;3.53;;;;;;;;;;5055321;28;20237;-86
2022/05/10 11:25:54;;;;;;;4.40;3.60;;;;;;;;;;5041674;28;20218;-87
2022/05/10 11:28:28;;;;;;;3.60;3.30;;;;;;;;;;5044413;28;20198;-87
2022/05/10 11:30:58;;;;;;;3.53;3.22;;;;;;;;;;5044068;28;20210;-88
2022/05/10 11:33:30;;;;;;;3.53;3.00;;;;;;;;;;5045518;28;20272;-88
2022/05/10 11:36:15;;;;;;;4.55;3.15;;;;;;;;;;5047200;28;20199;-88
2022/05/10 11:39:07;;;;;;;3.30;3.00;;;;;;;;;;5039108;28;20539;-88
2022/05/10 11:41:37;;;;;;;3.80;2.95;;;;;;;;;;4998515;28;20231;-87
2022/05/10 11:44:24;;;;;;;4.68;3.17;;;;;;;;;;5053444;28;20238;-87
2022/05/10 11:47:08;;;;;;;2.83;2.63;;;;;;;;;;5054312;28;20293;-87
2022/05/10 11:49:40;;;;;;;3.03;2.83;;;;;;;;;;5053767;28;20243;-88
2022/05/10 11:52:23;;;;;;;3.28;3.05;;;;;;;;;;5054293;28;20666;-88
2022/05/10 11:54:57;;;;;;;3.33;3.10;;;;;;;;;;5053203;28;20619;-88
2022/05/10 11:57:24;;;;;;;3.42;2.90;;;;;;;;;;5054216;28;20646;-86
2022/05/10 11:59:52;;;;;;;3.38;3.05;;;;;;;;;;5053761;28;20237;-87
2022/05/10 12:02:37;;;;;;;3.15;2.88;;;;;;;;;;5053883;28;20253;-88
2022/05/10 12:05:23;;;;;;;3.20;3.00;;;;;;;;;;5053008;28;20284;-86
2022/05/10 12:07:52;;;;;;;3.00;2.80;;;;;;;;;;5053847;28;20200;-86
2022/05/10 12:10:30;;;;;;;3.72;3.42;;;;;;;;;;5053439;28;20690;-86
2022/05/10 12:12:59;;;;;;;3.10;2.85;;;;;;;;;;5053723;28;20269;-88
2022/05/10 12:21:32;;;;;;;3.22;3.03;;;;;;;;;;5054309;28;20348;-87
2022/05/10 12:24:02;;;;;;;3.28;2.83;;;;;;;;;;5053048;28;20241;-84
2022/05/10 12:26:34;;;;;;;3.90;3.00;;;;;;;;;;5053995;28;20241;-85
2022/05/10 12:29:01;;;;;;;2.90;2.70;;;;;;;;;;5053136;28;20234;-85
2022/05/10 12:31:46;;;;;;;3.83;3.15;;;;;;;;;;5053396;28;20202;-82
2022/05/10 12:34:13;;;;;;;3.22;2.80;;;;;;;;;;5051752;28;20245;-84
2022/05/10 12:36:41;;;;;;;3.28;2.97;;;;;;;;;;5052671;28;20729;-84
2022/05/10 12:39:22;;;;;;;3.80;3.03;;;;;;;;;;5052105;28;20242;-83
2022/05/10 12:41:52;;;;;;;3.58;3.03;;;;;;;;;;5052312;28;20206;-85
2022/05/10 12:44:33;;;;;;;3.13;2.92;;;;;;;;;;5051178;28;20238;-84
2022/05/10 12:47:10;;;;;;;3.50;3.10;;;;;;;;;;5052079;28;20198;-84
2022/05/10 12:49:52;;;;;;;3.10;2.90;;;;;;;;;;5051740;28;20291;-85
2022/05/10 12:52:24;;;;;;;3.78;2.83;;;;;;;;;;5050030;28;20202;-84
2022/05/10 12:55:04;;;;;;;3.13;2.80;;;;;;;;;;5050791;28;20240;-86
2022/05/10 12:57:37;;;;;;;3.40;3.10;;;;;;;;;;5052672;28;20200;-89
2022/05/10 13:00:08;;;;;;;3.65;3.35;;;;;;;;;;5052575;28;20280;-87
2022/05/10 13:02:36;;;;;;;3.10;2.90;;;;;;;;;;5053318;28;20273;-88
2022/05/10 13:05:06;;;;;;;3.88;2.97;;;;;;;;;;5053011;28;20245;-87
2022/05/10 13:07:54;;;;;;;3.17;2.97;;;;;;;;;;5054602;28;20214;-86
2022/05/10 13:10:23;;;;;;;3.20;3.00;;;;;;;;;;5048965;28;20260;-89
2022/05/10 13:12:52;;;;;;;4.32;3.00;;;;;;;;;;5054412;28;20226;-86
2022/05/10 13:15:21;;;;;;;3.65;3.35;;;;;;;;;;5054131;28;20245;-87
2022/05/10 13:17:51;;;;;;;4.47;3.88;;;;;;;;;;5054973;28;20210;-89
2022/05/10 13:20:21;;;;;;;3.53;3.17;;;;;;;;;;5053212;28;20229;-87
2022/05/10 13:22:49;;;;;;;3.40;3.10;;;;;;;;;;5079182;23;20223;-83
2022/05/10 13:25:17;;;;;;;3.00;2.80;;;;;;;;;;5078909;28;20239;-83
2022/05/10 13:27:46;;;;;;;8.20;3.50;;;;;;;;;;5090110;28;20205;-83
2022/05/10 13:30:16;;;;;;;3.50;3.20;;;;;;;;;;5090815;28;20290;-83
2022/05/10 13:32:44;;;;;;;3.65;3.22;;;;;;;;;;5092144;28;20197;-83
2022/05/10 13:35:13;;;;;;;4.93;3.42;;;;;;;;;;5088630;28;20229;-84
2022/05/10 13:37:41;;;;;;;3.35;3.15;;;;;;;;;;5090016;28;20252;-82
2022/05/10 13:40:13;;;;;;;3.95;3.65;;;;;;;;;;5088174;28;20237;-83
2022/05/10 13:42:42;;;;;;;3.75;3.35;;;;;;;;;;5059255;28;20613;-83
2022/05/10 13:45:11;;;;;;;3.90;3.55;;;;;;;;;;5053897;28;20246;-83
2022/05/10 13:47:39;;;;;;;3.67;3.38;;;;;;;;;;5054466;28;20210;-83
2022/05/10 13:50:06;;;;;;;5.60;3.67;;;;;;;;;;5072567;28;20237;-83
2022/05/10 13:52:36;;;;;;;3.72;3.42;;;;;;;;;;5073451;28;20205;-83
2022/05/10 13:55:06;;;;;;;4.55;3.47;;;;;;;;;;5052301;28;20234;-83
2022/05/10 13:57:35;;;;;;;4.35;3.33;;;;;;;;;;5054895;28;20194;-82
2022/05/10 14:00:13;;;;;;;4.82;3.15;;;;;;;;;;5054037;28;20233;-84
2022/05/10 14:02:43;;;;;;;4.07;3.67;;;;;;;;;;5052969;28;20214;-83
2022/05/10 14:05:16;;;;;;;3.90;3.50;;;;;;;;;;5056943;28;20232;-83
2022/05/10 14:07:47;;;;;;;3.80;3.47;;;;;;;;;;5074319;28;20205;-83
2022/05/10 14:10:16;;;;;;;3.78;3.47;;;;;;;;;;5072928;28;20291;-83
2022/05/10 14:12:47;;;;;;;3.85;3.55;;;;;;;;;;5077383;28;20223;-84
2022/05/10 14:15:26;;;;;;;3.72;3.42;;;;;;;;;;5076513;28;20317;-83
2022/05/10 14:17:56;;;;;;;4.40;3.22;;;;;;;;;;5074801;28;20272;-84
2022/05/10 14:20:25;;;;;;;3.75;3.42;;;;;;;;;;5067556;28;20598;-83
2022/05/10 14:22:54;;;;;;;3.63;3.30;;;;;;;;;;5065389;28;20229;-83
2022/05/10 14:25:22;;;;;;;3.83;3.53;;;;;;;;;;5072385;28;20688;-83
2022/05/10 14:28:01;;;;;;;3.60;3.30;;;;;;;;;;5073743;28;20185;-84
2022/05/10 14:30:28;;;;;;;4.10;3.70;;;;;;;;;;5076128;28;20291;-83
2022/05/10 14:32:57;;;;;;;5.35;3.70;;;;;;;;;;5076236;28;20307;-84
2022/05/10 14:35:25;;;;;;;3.88;3.47;;;;;;;;;;5060928;28;20241;-84
2022/05/10 14:37:53;;;;;;;4.65;3.85;;;;;;;;;;5076179;28;20296;-84
2022/05/10 14:40:26;;;;;;;3.88;3.58;;;;;;;;;;5076496;28;20228;-85
2022/05/10 14:42:58;;;;;;;3.53;3.33;;;;;;;;;;5074762;28;20228;-84
2022/05/10 14:45:47;;;;;;;3.58;3.30;;;;;;;;;;5068430;28;20226;-84
2022/05/10 14:48:23;;;;;;;4.40;3.70;;;;;;;;;;5055616;28;20208;-84
2022/05/10 14:50:54;;;;;;;3.60;3.30;;;;;;;;;;5061619;28;20277;-84
2022/05/10 14:53:22;;;;;;;3.85;3.45;;;;;;;;;;5068672;28;20224;-84
2022/05/10 14:55:51;;;;;;;5.13;3.60;;;;;;;;;;5068496;28;20201;-84
2022/05/10 14:58:24;;;;;;;4.00;3.63;;;;;;;;;;5065005;28;20208;-82
2022/05/10 15:01:00;;;;;;;3.65;3.40;;;;;;;;;;5060828;28;20876;-83
2022/05/10 15:03:28;;;;;;;3.78;3.50;;;;;;;;;;5056934;28;20705;-84
2022/05/10 15:05:56;;;;;;;3.47;3.17;;;;;;;;;;5064994;28;20225;-84
2022/05/10 15:08:25;;;;;;;3.67;3.38;;;;;;;;;;5074649;28;20669;-84
2022/05/10 15:10:53;;;;;;;3.55;3.25;;;;;;;;;;5058098;28;20212;-84
2022/05/10 15:13:22;;;;;;;3.75;3.45;;;;;;;;;;5055409;28;20229;-84
2022/05/10 15:15:50;;;;;;;3.78;3.30;;;;;;;;;;5056008;28;20260;-84
2022/05/10 15:21:05;;;;;;;5.00;3.17;;;;;;;;;;5056367;28;20190;-84